CDT,Max TemperatureF,Mean TemperatureF,Min TemperatureF,Max Dew PointF,MeanDew PointF,Min DewpointF,Max Humidity, Mean Humidity, Min Humidity, Max Sea Level PressureIn, Mean Sea Level PressureIn, Min Sea Level PressureIn, Max VisibilityMiles, Mean VisibilityMiles, Min VisibilityMiles, Max Wind SpeedMPH, Mean Wind SpeedMPH, Max Gust SpeedMPH,PrecipitationIn, CloudCover, Events, WindDirDegrees
2013-5-1,60,50,39,45,39,32,87,63,42,30.36,30.17,29.96,10,10,10,20,8,25,0.00,2,,345
2013-5-2,39,36,32,34,32,30,100,90,75,30.41,30.36,30.32,10,9,2,15,11,23,0.20,7,Rain-Snow,355
2013-5-3,37,34,32,37,34,32,100,99,93,30.31,30.15,30.06,10,7,3,10,3,16,0.24,8,Rain,15
2013-5-4,69,53,37,52,45,37,100,78,49,30.10,30.05,30.02,10,10,2,12,5,16,0.08,4,Rain-Thunderstorm,25
2013-5-5,73,55,37,45,40,34,100,66,25,30.12,30.07,30.02,10,10,10,8,2,10,0.00,0,,67
2013-5-6,75,56,37,46,38,32,100,60,21,30.10,30.06,30.00,10,10,10,10,1,,0.00,0,,93
2013-5-7,78,58,39,45,38,30,93,58,17,30.07,30.03,29.98,10,10,10,8,1,,0.00,0,,285
2013-5-8,80,58,37,48,39,36,100,54,21,30.04,29.99,29.95,10,10,10,12,1,18,0.00,0,,248
2013-5-9,62,56,50,58,54,46,100,90,59,29.98,29.95,29.92,10,8,2,18,4,20,0.27,6,Rain,58
2013-5-10,62,51,40,46,41,39,97,79,42,30.04,29.99,29.93,10,10,7,14,8,20,0.01,5,Rain,360
2013-5-11,52,46,40,46,31,19,99,62,30,30.10,29.96,29.82,10,10,7,26,8,38,0.00,3,Rain,310
2013-5-12,55,44,30,26,21,15,82,44,21,30.16,30.12,30.08,10,10,10,17,8,25,0.00,1,,312
2013-5-13,66,44,23,36,26,18,93,51,18,30.16,30.04,29.80,10,10,10,16,3,21,0.00,0,Rain,200
2013-5-14,91,68,46,54,45,36,79,41,15,29.79,29.65,29.48,10,10,7,22,6,31,0.00,0,Rain,209
2013-5-15,74,62,49,47,40,32,79,40,22,29.90,29.82,29.61,10,10,10,16,8,22,0.00,0,Rain,298
2013-5-16,84,62,40,48,41,35,95,50,18,29.96,29.90,29.86,10,10,10,15,2,21,0.00,0,,277
2013-5-17,62,56,47,56,46,29,94,75,32,30.09,30.03,29.95,10,9,4,17,9,22,0.59,3,Rain,88
2013-5-18,80,66,51,60,54,46,85,68,48,30.07,29.98,29.89,10,10,10,12,5,16,0.00,1,,105
2013-5-19,85,74,62,62,59,55,93,61,38,29.90,29.78,29.61,10,10,5,18,8,36,0.10,1,Rain-Thunderstorm,143
2013-5-20,81,71,61,62,57,52,97,67,37,29.75,29.65,29.60,10,10,3,20,8,28,0.34,2,Rain-Thunderstorm,178
2013-5-21,71,62,53,62,57,52,97,79,55,29.71,29.63,29.57,10,9,1,12,3,18,1.15,6,Rain-Thunderstorm,207
2013-5-22,59,55,51,57,54,50,96,94,88,29.88,29.71,29.66,10,8,2,13,3,17,1.37,8,Rain,13
2013-5-23,64,50,37,50,39,27,96,64,27,30.34,30.14,29.88,10,10,10,16,8,25,0.04,,Rain,11
2013-5-24,67,49,31,45,36,31,100,62,29,30.46,30.36,30.28,10,10,10,9,2,,0.00,,,122
2013-5-25,59,54,49,48,43,36,92,69,44,30.36,30.32,30.29,10,10,7,13,3,17,0.04,,Rain,124
2013-5-26,62,55,48,51,41,31,82,62,35,30.31,30.23,30.14,10,10,7,14,6,20,0.01,,Rain,111
2013-5-27,55,52,50,54,48,40,97,82,60,30.12,29.98,29.88,10,9,2,15,8,21,0.36,,Rain,96
2013-5-28,62,56,50,58,54,50,97,92,79,29.88,29.77,29.72,10,8,2,12,5,,0.02,,Rain,81
2013-5-29,84,70,57,63,60,56,98,79,44,29.86,29.82,29.77,10,7,1,15,3,20,1.65,,Rain-Thunderstorm,181
2013-5-30,80,72,63,68,62,58,95,77,48,29.81,29.72,29.64,10,10,1,26,9,37,0.13,,Rain-Thunderstorm,164
2013-5-31,79,70,62,60,58,52,84,67,39,29.72,29.68,29.63,10,10,10,22,12,34,0.04,,Thunderstorm,186